createdAt,value
2022-10-07T00:00:55.395Z,14.77
2022-10-07T00:03:23.608Z,15.68
2022-10-07T00:06:00.825Z,13.70
2022-10-07T00:08:28.245Z,12.50
2022-10-07T00:10:55.538Z,16.50
2022-10-07T00:13:22.842Z,15.35
2022-10-07T00:15:50.079Z,12.43
2022-10-07T00:18:17.407Z,13.07
2022-10-07T00:20:44.893Z,12.02
2022-10-07T00:23:12.236Z,12.65
2022-10-07T00:25:39.552Z,12.15
2022-10-07T00:28:07.180Z,11.98
2022-10-07T00:30:34.543Z,10.90
2022-10-07T00:33:01.939Z,11.32
2022-10-07T00:35:29.211Z,15.73
2022-10-07T00:37:56.549Z,18.85
2022-10-07T00:40:23.875Z,13.30
2022-10-07T00:42:51.491Z,14.80
2022-10-07T00:45:21.922Z,13.90
2022-10-07T00:47:51.653Z,14.55
2022-10-07T00:50:25.343Z,16.45
2022-10-07T00:52:54.458Z,14.57
2022-10-07T00:55:23.334Z,16.85
2022-10-07T00:57:51.776Z,14.50
2022-10-07T01:00:21.804Z,16.98
2022-10-07T01:02:49.168Z,16.20
2022-10-07T01:05:17.917Z,12.25
2022-10-07T01:07:47.028Z,11.38
2022-10-07T01:10:18.911Z,13.20
2022-10-07T01:12:58.186Z,14.25
2022-10-07T01:15:52.251Z,12.75
2022-10-07T01:18:19.593Z,15.52
2022-10-07T01:21:09.853Z,10.88
2022-10-07T01:23:44.383Z,14.52
2022-10-07T01:26:30.529Z,12.63
2022-10-07T01:29:05.671Z,12.70
2022-10-07T01:31:35.655Z,18.15
2022-10-07T01:34:04.337Z,14.73
2022-10-07T01:36:32.798Z,11.98
2022-10-07T01:39:03.626Z,13.20
2022-10-07T01:41:32.185Z,15.50
2022-10-07T01:44:00.126Z,12.52
2022-10-07T01:46:28.568Z,15.93
2022-10-07T01:48:58.819Z,15.43
2022-10-07T01:51:28.418Z,13.07
2022-10-07T01:54:02.490Z,11.43
2022-10-07T01:56:43.751Z,14.23
2022-10-07T01:59:29.391Z,13.90
2022-10-07T02:01:59.551Z,11.82
2022-10-07T02:04:37.302Z,12.38
2022-10-07T02:07:23.445Z,14.27
2022-10-07T02:09:59.820Z,12.00
2022-10-07T02:12:45.551Z,13.35
2022-10-07T02:15:35.984Z,15.88
2022-10-07T02:18:07.384Z,15.00
2022-10-07T02:20:37.305Z,9.73
2022-10-07T02:23:06.030Z,13.98
2022-10-07T02:25:35.940Z,17.85
2022-10-07T02:28:06.007Z,10.52
2022-10-07T02:30:35.614Z,11.77
2022-10-07T02:33:04.055Z,12.35
2022-10-07T02:35:35.376Z,13.02
2022-10-07T02:38:05.362Z,14.57
2022-10-07T02:40:48.881Z,16.13
2022-10-07T02:43:36.485Z,17.08
2022-10-07T02:46:09.920Z,13.40
2022-10-07T02:48:42.184Z,12.30
2022-10-07T02:51:11.921Z,14.10
2022-10-07T02:53:39.911Z,16.27
2022-10-07T02:56:07.661Z,14.10
2022-10-07T02:58:36.588Z,18.38
2022-10-07T03:01:05.369Z,15.18
2022-10-07T03:03:32.655Z,12.10
2022-10-07T03:06:05.506Z,10.40
2022-10-07T03:08:34.265Z,14.02
2022-10-07T03:11:02.274Z,12.10
2022-10-07T03:13:31.430Z,17.48
2022-10-07T03:16:05.396Z,13.18
2022-10-07T03:18:33.410Z,17.58
2022-10-07T03:21:08.682Z,12.63
2022-10-07T03:23:36.778Z,13.20
2022-10-07T03:26:04.055Z,11.65
2022-10-07T03:28:37.779Z,14.07
2022-10-07T03:31:07.591Z,11.85
2022-10-07T03:33:37.467Z,9.38
2022-10-07T03:36:08.018Z,15.23
2022-10-07T03:38:36.474Z,11.80
2022-10-07T03:41:07.089Z,13.38
2022-10-07T03:43:34.848Z,12.23
2022-10-07T03:46:05.759Z,18.23
2022-10-07T03:48:36.021Z,12.13
2022-10-07T03:51:03.313Z,13.18
2022-10-07T03:53:33.506Z,11.60
2022-10-07T03:56:02.494Z,12.40
2022-10-07T03:58:31.212Z,15.32
2022-10-07T04:01:12.696Z,9.50
2022-10-07T04:03:46.705Z,18.67
2022-10-07T04:06:14.608Z,12.52
2022-10-07T04:08:44.839Z,12.57
2022-10-07T04:11:13.285Z,11.32
2022-10-07T04:13:43.571Z,9.13
2022-10-07T04:16:13.166Z,11.90
2022-10-07T04:18:43.690Z,12.65
2022-10-07T04:21:11.747Z,13.80
2022-10-07T04:23:40.499Z,12.25
2022-10-07T04:26:09.395Z,13.85
2022-10-07T04:28:37.497Z,11.15
2022-10-07T04:31:12.018Z,15.68
2022-10-07T04:33:46.626Z,14.80
2022-10-07T04:36:19.856Z,10.80
2022-10-07T04:39:01.070Z,15.13
2022-10-07T04:41:32.866Z,14.57
2022-10-07T04:44:01.040Z,17.17
2022-10-07T04:46:33.203Z,15.40
2022-10-07T04:49:06.127Z,14.15
2022-10-07T04:51:33.527Z,12.38
2022-10-07T04:54:01.834Z,11.45
2022-10-07T04:56:35.423Z,14.05
2022-10-07T04:59:06.240Z,14.25
2022-10-07T05:01:34.831Z,17.52
2022-10-07T05:04:03.057Z,15.52
2022-10-07T05:06:30.658Z,13.85
2022-10-07T05:08:57.952Z,19.00
2022-10-07T05:11:26.615Z,13.70
2022-10-07T05:14:02.087Z,12.35
2022-10-07T05:16:31.396Z,11.90
2022-10-07T05:18:59.686Z,11.85
2022-10-07T05:21:27.153Z,17.05
2022-10-07T05:23:54.402Z,13.70
2022-10-07T05:26:27.651Z,14.02
2022-10-07T05:28:58.693Z,14.00
2022-10-07T05:31:36.184Z,14.20
2022-10-07T05:34:04.946Z,11.43
2022-10-07T05:36:33.323Z,16.05
2022-10-07T05:39:01.724Z,12.43
2022-10-07T05:41:45.363Z,11.43
2022-10-07T05:44:15.073Z,13.30
2022-10-07T05:46:43.543Z,16.15
2022-10-07T05:49:12.597Z,16.13
2022-10-07T05:51:41.062Z,14.13
2022-10-07T05:54:08.896Z,10.30
2022-10-07T05:56:40.607Z,15.18
2022-10-07T05:59:08.531Z,16.02
2022-10-07T06:01:37.749Z,16.13
2022-10-07T06:04:12.120Z,16.58
2022-10-07T06:06:42.402Z,15.57
2022-10-07T06:09:31.321Z,15.00
2022-10-07T06:12:20.796Z,14.48
2022-10-07T06:14:50.054Z,14.32
2022-10-07T06:17:17.500Z,13.85
2022-10-07T06:19:46.795Z,11.43
2022-10-07T06:22:15.950Z,17.70
2022-10-07T06:24:45.307Z,10.00
2022-10-07T06:27:12.734Z,10.88
2022-10-07T06:29:42.511Z,12.20
2022-10-07T06:32:10.314Z,13.73
2022-10-07T06:34:39.368Z,13.60
2022-10-07T06:37:06.865Z,14.50
2022-10-07T06:39:34.472Z,17.17
2022-10-07T06:42:02.251Z,9.10
2022-10-07T06:44:53.980Z,11.18
2022-10-07T06:47:23.579Z,11.38
2022-10-07T06:49:51.625Z,12.38
2022-10-07T06:52:19.281Z,11.75
2022-10-07T06:54:47.804Z,13.02
2022-10-07T06:57:43.830Z,14.40
2022-10-07T07:00:04.584Z,12.10
2022-10-07T07:02:33.744Z,12.73
2022-10-07T07:05:04.714Z,13.10
2022-10-07T07:07:32.269Z,12.27
2022-10-07T07:10:02.353Z,13.13
2022-10-07T07:12:32.656Z,16.75
2022-10-07T07:15:00.431Z,11.07
2022-10-07T07:17:27.942Z,14.20
2022-10-07T07:19:57.091Z,12.52
2022-10-07T07:22:24.727Z,11.57
2022-10-07T07:24:52.110Z,9.82
2022-10-07T07:27:19.446Z,12.45
2022-10-07T07:29:46.947Z,15.77
2022-10-07T07:32:14.729Z,15.82
2022-10-07T07:34:43.849Z,19.13
2022-10-07T07:37:16.028Z,17.83
2022-10-07T07:39:48.110Z,18.98
2022-10-07T07:42:18.631Z,10.63
2022-10-07T07:44:46.028Z,14.80
2022-10-07T07:47:17.057Z,9.55
2022-10-07T07:49:46.163Z,14.13
2022-10-07T07:52:19.538Z,19.02
2022-10-07T07:54:49.240Z,14.52
2022-10-07T07:57:16.541Z,13.80
2022-10-07T07:59:43.808Z,10.65
2022-10-07T08:02:13.214Z,11.43
2022-10-07T08:04:43.680Z,15.23
2022-10-07T08:07:13.262Z,12.48
2022-10-07T08:09:43.918Z,14.82
2022-10-07T08:12:11.514Z,15.77
2022-10-07T08:14:39.001Z,11.40
2022-10-07T08:17:06.805Z,7.90
2022-10-07T08:19:34.634Z,11.63
2022-10-07T08:22:04.039Z,15.88
2022-10-07T08:24:32.036Z,12.93
2022-10-07T08:26:59.073Z,11.43
2022-10-07T08:29:26.088Z,11.82
2022-10-07T08:31:53.111Z,17.00
2022-10-07T08:34:20.023Z,14.20
2022-10-07T08:36:48.715Z,11.07
2022-10-07T08:39:16.245Z,14.90
2022-10-07T08:41:57.909Z,14.20
2022-10-07T08:44:36.953Z,14.10
2022-10-07T08:47:06.852Z,12.60
2022-10-07T08:50:06.205Z,14.70
2022-10-07T08:52:35.764Z,10.02
2022-10-07T08:55:02.827Z,13.07
2022-10-07T08:57:46.462Z,15.27
2022-10-07T09:00:18.670Z,14.32
2022-10-07T09:02:58.403Z,14.77
2022-10-07T09:05:39.056Z,12.18
2022-10-07T09:08:36.935Z,16.75
2022-10-07T09:11:15.837Z,12.93
2022-10-07T09:13:48.743Z,10.32
2022-10-07T09:16:27.043Z,9.27
2022-10-07T09:18:57.763Z,10.73
2022-10-07T09:22:05.296Z,9.50
2022-10-07T09:24:34.586Z,11.95
2022-10-07T09:27:11.912Z,10.93
2022-10-07T09:29:38.935Z,11.77
2022-10-07T09:32:05.903Z,8.95
2022-10-07T09:34:32.840Z,14.45
2022-10-07T09:37:13.381Z,11.88
2022-10-07T09:39:41.919Z,9.55
2022-10-07T09:42:39.937Z,12.50
2022-10-07T09:45:25.318Z,14.55
2022-10-07T09:47:55.629Z,17.83
2022-10-07T09:50:33.559Z,13.43
2022-10-07T09:53:02.295Z,13.13
2022-10-07T09:55:37.753Z,15.93
2022-10-07T09:58:19.059Z,11.18
2022-10-07T10:00:51.585Z,10.93
2022-10-07T10:03:19.920Z,15.32
2022-10-07T10:05:54.933Z,16.67
2022-10-07T10:08:26.085Z,11.43
2022-10-07T10:10:58.503Z,12.95
2022-10-07T10:13:31.466Z,17.92
2022-10-07T10:15:59.454Z,16.08
2022-10-07T10:18:34.293Z,15.40
2022-10-07T10:21:21.093Z,12.52
2022-10-07T10:23:51.157Z,11.60
2022-10-07T10:26:43.235Z,12.75
2022-10-07T10:29:29.519Z,13.85
2022-10-07T10:32:20.985Z,13.98
2022-10-07T10:35:14.937Z,10.13
2022-10-07T10:37:48.037Z,12.93
2022-10-07T10:40:37.320Z,11.35
2022-10-07T10:43:10.245Z,9.98
2022-10-07T10:45:40.195Z,10.52
2022-10-07T10:48:07.232Z,17.95
2022-10-07T10:50:34.200Z,12.82
2022-10-07T10:53:21.318Z,9.07
2022-10-07T10:56:06.474Z,9.63
2022-10-07T10:58:47.478Z,12.77
2022-10-07T11:01:36.610Z,11.73
2022-10-07T11:04:15.970Z,8.75
2022-10-07T11:06:46.694Z,9.68
2022-10-07T11:09:30.798Z,10.60
2022-10-07T11:12:03.685Z,7.60
2022-10-07T11:14:33.048Z,12.85
2022-10-07T11:17:05.023Z,9.40
2022-10-07T11:19:53.775Z,9.77
2022-10-07T11:22:32.477Z,11.25
2022-10-07T11:25:09.212Z,11.70
2022-10-07T11:27:36.356Z,10.32
2022-10-07T11:30:06.678Z,9.20
2022-10-07T11:32:50.244Z,8.90
2022-10-07T11:35:33.196Z,11.07
2022-10-07T11:38:14.720Z,9.25
2022-10-07T11:41:08.489Z,10.50
2022-10-07T11:43:49.836Z,12.23
2022-10-07T11:46:32.650Z,11.18
2022-10-07T11:49:11.652Z,8.82
2022-10-07T11:51:41.037Z,9.18
2022-10-07T11:54:16.317Z,9.30
2022-10-07T11:56:56.120Z,7.35
2022-10-07T11:59:50.152Z,11.30
2022-10-07T12:02:29.517Z,7.57
2022-10-07T12:04:57.831Z,10.65
2022-10-07T12:07:39.006Z,10.13
2022-10-07T12:10:24.065Z,7.15
2022-10-07T12:15:36.973Z,9.82
2022-10-07T12:18:28.559Z,11.05
2022-10-07T12:21:01.982Z,9.82
2022-10-07T12:23:31.057Z,9.15
2022-10-07T12:26:04.898Z,6.70
2022-10-07T12:28:45.993Z,8.38
2022-10-07T12:31:13.262Z,8.15
2022-10-07T12:33:46.379Z,14.88
2022-10-07T12:36:22.318Z,8.55
2022-10-07T12:39:12.266Z,9.57
2022-10-07T12:41:46.333Z,6.22
2022-10-07T12:44:31.136Z,8.75
2022-10-07T12:47:11.172Z,8.85
2022-10-07T12:49:48.840Z,9.00
2022-10-07T12:52:19.571Z,8.05
2022-10-07T12:54:56.863Z,6.93
2022-10-07T12:57:29.839Z,7.18
2022-10-07T13:00:11.682Z,9.80
2022-10-07T13:02:59.906Z,8.30
2022-10-07T13:05:44.913Z,10.68
2022-10-07T13:11:12.173Z,5.43
2022-10-07T13:13:48.099Z,6.18
2022-10-07T13:16:46.596Z,7.47
2022-10-07T13:19:18.929Z,6.20
2022-10-07T13:22:15.312Z,6.20
2022-10-07T13:24:51.117Z,6.22
2022-10-07T13:27:29.370Z,10.02
2022-10-07T13:29:58.319Z,10.25
2022-10-07T13:32:30.523Z,8.82
2022-10-07T13:34:59.528Z,11.18
2022-10-07T13:37:32.439Z,9.43
2022-10-07T13:40:21.845Z,5.43
2022-10-07T13:42:56.683Z,9.27
2022-10-07T13:45:23.937Z,10.15
2022-10-07T13:47:51.279Z,7.18
2022-10-07T13:50:22.830Z,6.72
2022-10-07T13:52:50.506Z,13.45
2022-10-07T13:55:31.202Z,6.57
2022-10-07T13:58:01.880Z,7.60
2022-10-07T14:00:29.753Z,10.40
2022-10-07T14:02:56.707Z,9.27
2022-10-07T14:05:29.957Z,6.95
2022-10-07T14:08:11.494Z,7.13
2022-10-07T14:10:50.715Z,5.38
2022-10-07T14:13:18.027Z,8.23
2022-10-07T14:15:49.689Z,6.70
2022-10-07T14:18:17.758Z,8.32
2022-10-07T14:20:56.982Z,8.43
2022-10-07T14:23:33.913Z,9.65
2022-10-07T14:26:06.293Z,10.75
2022-10-07T14:28:35.411Z,9.60
2022-10-07T14:31:26.682Z,6.35
2022-10-07T14:34:15.997Z,6.20
2022-10-07T14:37:09.484Z,5.18
2022-10-07T14:39:45.291Z,7.18
2022-10-07T14:42:14.021Z,8.93
2022-10-07T14:44:44.437Z,8.75
2022-10-07T14:47:17.692Z,11.27
2022-10-07T14:49:44.665Z,5.00
2022-10-07T14:52:29.663Z,7.25
2022-10-07T14:57:31.763Z,9.27
2022-10-07T14:59:58.645Z,5.55
2022-10-07T15:02:25.957Z,9.18
2022-10-07T15:04:53.220Z,8.98
2022-10-07T15:07:21.391Z,9.68
2022-10-07T15:09:48.420Z,6.63
2022-10-07T15:12:16.731Z,6.65
2022-10-07T15:14:43.617Z,8.07
2022-10-07T15:17:14.855Z,7.30
2022-10-07T15:19:41.985Z,9.70
2022-10-07T15:22:08.809Z,8.80
2022-10-07T15:24:35.984Z,7.40
2022-10-07T15:27:03.011Z,6.50
2022-10-07T15:29:29.882Z,11.23
2022-10-07T15:31:56.991Z,8.65
2022-10-07T15:34:24.052Z,10.25
2022-10-07T15:36:50.839Z,5.18
2022-10-07T15:39:17.702Z,8.05
2022-10-07T15:41:45.023Z,9.60
2022-10-07T15:44:16.331Z,9.05
2022-10-07T15:46:44.498Z,5.35
2022-10-07T15:49:11.530Z,7.43
2022-10-07T15:51:38.903Z,4.68
2022-10-07T15:54:06.687Z,5.78
2022-10-07T15:56:34.065Z,5.82
2022-10-07T15:59:02.063Z,7.95
2022-10-07T16:01:31.972Z,6.22
2022-10-07T16:04:01.182Z,4.90
2022-10-07T16:06:33.448Z,8.10
2022-10-07T16:09:01.597Z,6.45
2022-10-07T16:11:30.553Z,7.60
2022-10-07T16:13:59.932Z,7.45
2022-10-07T16:16:27.989Z,8.10
2022-10-07T16:18:57.599Z,6.50
2022-10-07T16:21:30.587Z,5.35
2022-10-07T16:24:19.099Z,6.72
2022-10-07T16:26:47.519Z,4.80
2022-10-07T16:29:36.243Z,6.40
2022-10-07T16:32:04.201Z,9.23
2022-10-07T16:34:31.018Z,8.02
2022-10-07T16:36:58.938Z,5.78
2022-10-07T16:39:25.988Z,5.38
2022-10-07T16:41:53.089Z,4.15
2022-10-07T16:44:21.092Z,9.02
2022-10-07T16:46:48.802Z,4.43
2022-10-07T16:49:17.831Z,4.93
2022-10-07T16:51:45.925Z,3.95
2022-10-07T16:54:17.320Z,4.28
2022-10-07T16:56:47.789Z,7.75
2022-10-07T16:59:23.926Z,7.45
2022-10-07T17:01:55.008Z,5.43
2022-10-07T17:04:22.289Z,6.22
2022-10-07T17:06:49.445Z,7.43
2022-10-07T17:09:17.822Z,10.45
2022-10-07T17:11:45.210Z,5.97
2022-10-07T17:14:16.338Z,5.18
2022-10-07T17:16:48.736Z,8.45
2022-10-07T17:19:18.226Z,8.68
2022-10-07T17:21:47.800Z,6.78
2022-10-07T17:24:16.805Z,8.63
2022-10-07T17:26:44.556Z,7.30
2022-10-07T17:29:13.867Z,7.30
2022-10-07T17:31:47.065Z,6.32
2022-10-07T17:34:16.165Z,7.30
2022-10-07T17:36:43.858Z,4.90
2022-10-07T17:39:11.223Z,5.45
2022-10-07T17:41:39.231Z,7.47
2022-10-07T17:44:11.552Z,8.93
2022-10-07T17:46:40.570Z,6.32
2022-10-07T17:49:10.013Z,7.95
2022-10-07T17:51:37.527Z,9.35
2022-10-07T17:54:06.063Z,7.10
2022-10-07T17:56:34.581Z,8.35
2022-10-07T17:59:02.287Z,7.00
2022-10-07T18:01:34.236Z,6.82
2022-10-07T18:04:06.808Z,7.75
2022-10-07T18:06:36.556Z,9.35
2022-10-07T18:09:07.758Z,7.90
2022-10-07T18:11:53.723Z,7.75
2022-10-07T18:14:39.623Z,12.02
2022-10-07T18:17:08.229Z,8.80
2022-10-07T18:19:35.410Z,6.90
2022-10-07T18:22:05.370Z,9.07
2022-10-07T18:24:32.278Z,11.55
2022-10-07T18:27:00.829Z,10.75
2022-10-07T18:29:29.314Z,8.07
2022-10-07T18:31:56.686Z,6.20
2022-10-07T18:34:24.333Z,9.18
2022-10-07T18:36:55.910Z,12.27
2022-10-07T18:39:23.106Z,8.23
2022-10-07T18:41:49.894Z,7.80
2022-10-07T18:44:16.857Z,12.02
2022-10-07T18:46:43.795Z,6.05
2022-10-07T18:49:13.662Z,8.07
2022-10-07T18:51:41.057Z,7.30
2022-10-07T18:54:08.097Z,8.98
2022-10-07T18:56:40.600Z,8.90
2022-10-07T18:59:09.730Z,5.85
2022-10-07T19:01:37.539Z,8.35
2022-10-07T19:04:06.624Z,9.70
2022-10-07T19:06:36.141Z,10.75
2022-10-07T19:09:07.168Z,7.25
2022-10-07T19:11:35.483Z,11.90
2022-10-07T19:14:02.475Z,12.15
2022-10-07T19:16:34.437Z,10.70
2022-10-07T19:19:17.144Z,10.15
2022-10-07T19:21:46.360Z,11.73
2022-10-07T19:24:14.680Z,6.30
2022-10-07T19:26:45.198Z,7.68
2022-10-07T19:29:13.611Z,11.85
2022-10-07T19:31:43.547Z,7.90
2022-10-07T19:34:12.828Z,9.27
2022-10-07T19:36:42.390Z,7.35
2022-10-07T19:39:10.791Z,10.07
2022-10-07T19:41:37.846Z,14.65
2022-10-07T19:44:05.523Z,7.18
2022-10-07T19:46:33.669Z,7.03
2022-10-07T19:49:02.523Z,7.88
2022-10-07T19:51:31.142Z,9.48
2022-10-07T19:54:00.041Z,7.75
2022-10-07T19:56:32.639Z,13.38
2022-10-07T19:59:06.139Z,8.07
2022-10-07T20:01:36.721Z,7.78
2022-10-07T20:04:04.984Z,12.32
2022-10-07T20:06:32.208Z,7.78
2022-10-07T20:08:59.467Z,7.03
2022-10-07T20:11:27.886Z,9.90
2022-10-07T20:13:55.113Z,7.78
2022-10-07T20:16:24.766Z,7.85
2022-10-07T20:19:02.212Z,10.55
2022-10-07T20:21:29.831Z,8.93
2022-10-07T20:23:56.956Z,10.85
2022-10-07T20:26:26.203Z,13.13
2022-10-07T20:28:55.818Z,9.70
2022-10-07T20:31:25.888Z,15.20
2022-10-07T20:33:54.779Z,10.35
2022-10-07T20:36:24.679Z,11.43
2022-10-07T20:39:14.755Z,9.52
2022-10-07T20:42:07.221Z,10.85
2022-10-07T20:44:36.549Z,11.95
2022-10-07T20:47:08.797Z,12.40
2022-10-07T20:49:38.577Z,12.00
2022-10-07T20:52:11.111Z,12.25
2022-10-07T20:54:38.043Z,7.68
2022-10-07T20:57:05.257Z,8.07
2022-10-07T20:59:32.636Z,10.98
2022-10-07T21:02:00.176Z,9.85
2022-10-07T21:04:28.550Z,11.30
2022-10-07T21:06:57.079Z,8.52
2022-10-07T21:09:24.940Z,13.40
2022-10-07T21:11:52.819Z,10.27
2022-10-07T21:14:20.543Z,12.27
2022-10-07T21:16:48.343Z,10.45
2022-10-07T21:19:16.618Z,9.75
2022-10-07T21:21:43.632Z,9.95
2022-10-07T21:24:11.161Z,12.18
2022-10-07T21:26:38.176Z,9.35
2022-10-07T21:29:08.313Z,14.73
2022-10-07T21:31:35.848Z,10.63
2022-10-07T21:34:10.707Z,11.27
2022-10-07T21:39:06.336Z,12.63
2022-10-07T21:41:35.907Z,13.25
2022-10-07T21:44:06.086Z,10.93
2022-10-07T21:46:34.290Z,13.73
2022-10-07T21:49:01.262Z,14.50
2022-10-07T21:51:29.631Z,11.43
2022-10-07T21:53:59.727Z,17.50
2022-10-07T21:56:29.242Z,11.05
2022-10-07T21:58:57.810Z,10.50
2022-10-07T22:01:25.275Z,14.38
2022-10-07T22:04:05.223Z,10.68
2022-10-07T22:06:51.211Z,12.70
2022-10-07T22:09:21.143Z,17.00
2022-10-07T22:11:49.226Z,14.52
2022-10-07T22:14:18.648Z,8.98
2022-10-07T22:16:48.318Z,13.30
2022-10-07T22:19:17.618Z,12.63
2022-10-07T22:21:45.741Z,15.43
2022-10-07T22:24:13.161Z,17.40
2022-10-07T22:26:43.706Z,11.27
2022-10-07T22:29:13.528Z,12.43
2022-10-07T22:31:40.548Z,11.02
2022-10-07T22:34:07.693Z,11.45
2022-10-07T22:36:36.861Z,12.55
2022-10-07T22:39:04.084Z,12.07
2022-10-07T22:41:31.043Z,15.90
2022-10-07T22:43:59.264Z,15.93
2022-10-07T22:46:27.906Z,13.85
2022-10-07T22:48:56.600Z,13.57
2022-10-07T22:51:24.573Z,17.10
2022-10-07T22:53:55.564Z,10.50
2022-10-07T22:56:23.544Z,12.52
2022-10-07T22:58:56.335Z,13.68
2022-10-07T23:01:23.692Z,10.82
2022-10-07T23:03:53.002Z,8.75
2022-10-07T23:06:20.668Z,16.27
2022-10-07T23:08:48.935Z,12.70
2022-10-07T23:11:17.647Z,10.88
2022-10-07T23:13:45.948Z,11.70
2022-10-07T23:16:15.530Z,7.43
2022-10-07T23:18:44.915Z,12.30
2022-10-07T23:21:16.574Z,11.73
2022-10-07T23:23:46.472Z,8.32
2022-10-07T23:26:20.935Z,7.18
2022-10-07T23:28:49.357Z,6.60
2022-10-07T23:31:18.439Z,10.45
2022-10-07T23:33:49.653Z,8.48
2022-10-07T23:36:17.927Z,11.70
2022-10-07T23:38:45.354Z,9.55
2022-10-07T23:41:13.845Z,11.25
2022-10-07T23:43:41.284Z,9.38
2022-10-07T23:46:14.466Z,11.07
2022-10-07T23:48:42.291Z,9.48
2022-10-07T23:51:10.914Z,7.25
2022-10-07T23:53:38.178Z,10.35
2022-10-07T23:56:05.681Z,11.50
2022-10-07T23:58:33.978Z,9.02
